sensor_id;sensor_type;location;lat;lon;timestamp;P1;durP1;ratioP1;P2;durP2;ratioP2
72406;SDS011;60396;47.550;18.828;2022-07-22T00:00:33;5.25;;;1.40;;
72406;SDS011;60396;47.550;18.828;2022-07-22T00:03:01;7.82;;;1.65;;
72406;SDS011;60396;47.550;18.828;2022-07-22T00:05:29;7.47;;;1.73;;
72406;SDS011;60396;47.550;18.828;2022-07-22T00:07:57;8.73;;;2.03;;
72406;SDS011;60396;47.550;18.828;2022-07-22T00:10:25;6.60;;;1.97;;
72406;SDS011;60396;47.550;18.828;2022-07-22T00:12:52;12.13;;;2.10;;
72406;SDS011;60396;47.550;18.828;2022-07-22T00:15:20;5.43;;;1.90;;
72406;SDS011;60396;47.550;18.828;2022-07-22T00:17:48;5.18;;;2.05;;
72406;SDS011;60396;47.550;18.828;2022-07-22T00:20:16;8.73;;;1.80;;
72406;SDS011;60396;47.550;18.828;2022-07-22T00:22:43;5.90;;;2.03;;
72406;SDS011;60396;47.550;18.828;2022-07-22T00:25:11;8.07;;;2.20;;
72406;SDS011;60396;47.550;18.828;2022-07-22T00:27:39;6.95;;;1.70;;
72406;SDS011;60396;47.550;18.828;2022-07-22T00:30:07;5.60;;;1.90;;
72406;SDS011;60396;47.550;18.828;2022-07-22T00:32:37;7.05;;;2.00;;
72406;SDS011;60396;47.550;18.828;2022-07-22T00:35:05;9.23;;;1.80;;
72406;SDS011;60396;47.550;18.828;2022-07-22T00:37:33;6.43;;;1.90;;
72406;SDS011;60396;47.550;18.828;2022-07-22T00:40:01;6.62;;;1.98;;
72406;SDS011;60396;47.550;18.828;2022-07-22T00:42:30;7.57;;;1.70;;
72406;SDS011;60396;47.550;18.828;2022-07-22T00:44:58;5.68;;;1.70;;
72406;SDS011;60396;47.550;18.828;2022-07-22T00:47:27;9.40;;;1.70;;
72406;SDS011;60396;47.550;18.828;2022-07-22T00:49:55;6.15;;;1.50;;
72406;SDS011;60396;47.550;18.828;2022-07-22T00:52:22;6.20;;;1.60;;
72406;SDS011;60396;47.550;18.828;2022-07-22T00:54:50;6.07;;;1.27;;
72406;SDS011;60396;47.550;18.828;2022-07-22T00:57:20;6.10;;;1.60;;
72406;SDS011;60396;47.550;18.828;2022-07-22T00:59:48;6.30;;;1.80;;
72406;SDS011;60396;47.550;18.828;2022-07-22T01:02:16;6.68;;;1.80;;
72406;SDS011;60396;47.550;18.828;2022-07-22T01:04:43;5.35;;;1.80;;
72406;SDS011;60396;47.550;18.828;2022-07-22T01:07:13;5.55;;;1.60;;
72406;SDS011;60396;47.550;18.828;2022-07-22T01:09:42;5.70;;;1.52;;
72406;SDS011;60396;47.550;18.828;2022-07-22T01:12:11;6.63;;;1.73;;
72406;SDS011;60396;47.550;18.828;2022-07-22T01:14:39;7.05;;;1.87;;
72406;SDS011;60396;47.550;18.828;2022-07-22T01:17:07;7.32;;;1.90;;
72406;SDS011;60396;47.550;18.828;2022-07-22T01:19:35;4.68;;;1.50;;
72406;SDS011;60396;47.550;18.828;2022-07-22T01:22:04;4.07;;;1.35;;
72406;SDS011;60396;47.550;18.828;2022-07-22T01:24:33;7.03;;;1.40;;
72406;SDS011;60396;47.550;18.828;2022-07-22T01:27:00;5.37;;;1.73;;
72406;SDS011;60396;47.550;18.828;2022-07-22T01:29:28;6.30;;;1.50;;
72406;SDS011;60396;47.550;18.828;2022-07-22T01:31:56;5.62;;;1.77;;
72406;SDS011;60396;47.550;18.828;2022-07-22T01:34:24;5.15;;;1.77;;
72406;SDS011;60396;47.550;18.828;2022-07-22T01:36:52;6.00;;;1.80;;
72406;SDS011;60396;47.550;18.828;2022-07-22T01:39:20;5.37;;;1.65;;
72406;SDS011;60396;47.550;18.828;2022-07-22T01:41:48;6.62;;;1.65;;
72406;SDS011;60396;47.550;18.828;2022-07-22T01:44:16;5.40;;;1.40;;
72406;SDS011;60396;47.550;18.828;2022-07-22T01:46:44;5.15;;;1.80;;
72406;SDS011;60396;47.550;18.828;2022-07-22T01:49:12;6.53;;;1.77;;
72406;SDS011;60396;47.550;18.828;2022-07-22T01:51:40;7.15;;;1.80;;
72406;SDS011;60396;47.550;18.828;2022-07-22T01:54:08;5.32;;;1.42;;
72406;SDS011;60396;47.550;18.828;2022-07-22T01:56:36;5.87;;;1.45;;
72406;SDS011;60396;47.550;18.828;2022-07-22T01:59:05;5.62;;;1.37;;
72406;SDS011;60396;47.550;18.828;2022-07-22T02:01:34;5.80;;;1.50;;
72406;SDS011;60396;47.550;18.828;2022-07-22T02:04:03;7.55;;;1.25;;
72406;SDS011;60396;47.550;18.828;2022-07-22T02:06:31;5.72;;;1.62;;
72406;SDS011;60396;47.550;18.828;2022-07-22T02:08:58;6.50;;;1.50;;
72406;SDS011;60396;47.550;18.828;2022-07-22T02:11:27;5.97;;;1.80;;
72406;SDS011;60396;47.550;18.828;2022-07-22T02:13:55;6.00;;;1.50;;
72406;SDS011;60396;47.550;18.828;2022-07-22T02:16:23;6.47;;;1.48;;
72406;SDS011;60396;47.550;18.828;2022-07-22T02:18:52;7.32;;;1.98;;
72406;SDS011;60396;47.550;18.828;2022-07-22T02:21:20;4.47;;;1.48;;
72406;SDS011;60396;47.550;18.828;2022-07-22T02:23:50;5.15;;;1.10;;
72406;SDS011;60396;47.550;18.828;2022-07-22T02:26:18;4.63;;;1.30;;
72406;SDS011;60396;47.550;18.828;2022-07-22T02:28:46;4.03;;;1.10;;
72406;SDS011;60396;47.550;18.828;2022-07-22T02:31:14;4.43;;;1.40;;
72406;SDS011;60396;47.550;18.828;2022-07-22T02:33:42;8.63;;;1.98;;
72406;SDS011;60396;47.550;18.828;2022-07-22T02:36:10;6.05;;;1.50;;
72406;SDS011;60396;47.550;18.828;2022-07-22T02:38:37;7.70;;;1.53;;
72406;SDS011;60396;47.550;18.828;2022-07-22T02:41:05;6.00;;;1.67;;
72406;SDS011;60396;47.550;18.828;2022-07-22T02:43:33;8.77;;;1.45;;
72406;SDS011;60396;47.550;18.828;2022-07-22T02:46:01;6.45;;;1.50;;
72406;SDS011;60396;47.550;18.828;2022-07-22T02:48:29;6.37;;;1.60;;
72406;SDS011;60396;47.550;18.828;2022-07-22T02:50:57;5.57;;;1.43;;
72406;SDS011;60396;47.550;18.828;2022-07-22T02:53:25;6.20;;;1.62;;
72406;SDS011;60396;47.550;18.828;2022-07-22T02:55:53;7.87;;;1.48;;
72406;SDS011;60396;47.550;18.828;2022-07-22T02:58:21;6.00;;;1.40;;
72406;SDS011;60396;47.550;18.828;2022-07-22T03:00:49;4.90;;;1.65;;
72406;SDS011;60396;47.550;18.828;2022-07-22T03:03:17;11.00;;;2.00;;
72406;SDS011;60396;47.550;18.828;2022-07-22T03:05:45;7.20;;;1.80;;
72406;SDS011;60396;47.550;18.828;2022-07-22T03:08:13;6.65;;;1.70;;
72406;SDS011;60396;47.550;18.828;2022-07-22T03:10:41;4.97;;;1.50;;
72406;SDS011;60396;47.550;18.828;2022-07-22T03:13:09;9.38;;;1.98;;
72406;SDS011;60396;47.550;18.828;2022-07-22T03:15:38;10.17;;;2.03;;
72406;SDS011;60396;47.550;18.828;2022-07-22T03:18:05;8.63;;;1.73;;
72406;SDS011;60396;47.550;18.828;2022-07-22T03:20:33;7.82;;;2.30;;
72406;SDS011;60396;47.550;18.828;2022-07-22T03:23:01;8.07;;;2.10;;
72406;SDS011;60396;47.550;18.828;2022-07-22T03:25:29;5.87;;;2.10;;
72406;SDS011;60396;47.550;18.828;2022-07-22T03:27:58;8.57;;;2.23;;
72406;SDS011;60396;47.550;18.828;2022-07-22T03:30:26;7.97;;;2.30;;
72406;SDS011;60396;47.550;18.828;2022-07-22T03:32:54;6.97;;;2.22;;
72406;SDS011;60396;47.550;18.828;2022-07-22T03:35:22;6.05;;;2.33;;
72406;SDS011;60396;47.550;18.828;2022-07-22T03:37:50;9.30;;;2.20;;
72406;SDS011;60396;47.550;18.828;2022-07-22T03:40:18;6.73;;;2.23;;
72406;SDS011;60396;47.550;18.828;2022-07-22T03:42:47;6.82;;;2.45;;
72406;SDS011;60396;47.550;18.828;2022-07-22T03:45:15;7.28;;;2.40;;
72406;SDS011;60396;47.550;18.828;2022-07-22T03:47:42;7.12;;;2.50;;
72406;SDS011;60396;47.550;18.828;2022-07-22T03:50:10;7.82;;;2.30;;
72406;SDS011;60396;47.550;18.828;2022-07-22T03:52:38;7.57;;;2.33;;
72406;SDS011;60396;47.550;18.828;2022-07-22T03:55:08;5.90;;;2.37;;
72406;SDS011;60396;47.550;18.828;2022-07-22T03:57:36;6.28;;;2.05;;
72406;SDS011;60396;47.550;18.828;2022-07-22T04:00:04;11.30;;;2.62;;
72406;SDS011;60396;47.550;18.828;2022-07-22T04:02:40;7.10;;;2.33;;
72406;SDS011;60396;47.550;18.828;2022-07-22T04:05:09;11.07;;;2.77;;
72406;SDS011;60396;47.550;18.828;2022-07-22T04:07:37;7.43;;;2.50;;
72406;SDS011;60396;47.550;18.828;2022-07-22T04:10:05;8.52;;;2.20;;
72406;SDS011;60396;47.550;18.828;2022-07-22T04:12:35;7.90;;;2.50;;
72406;SDS011;60396;47.550;18.828;2022-07-22T04:15:06;11.27;;;2.40;;
72406;SDS011;60396;47.550;18.828;2022-07-22T04:17:35;9.80;;;2.43;;
72406;SDS011;60396;47.550;18.828;2022-07-22T04:20:04;6.72;;;2.28;;
72406;SDS011;60396;47.550;18.828;2022-07-22T04:22:34;6.60;;;2.15;;
72406;SDS011;60396;47.550;18.828;2022-07-22T04:25:03;7.78;;;2.25;;
72406;SDS011;60396;47.550;18.828;2022-07-22T04:27:31;7.43;;;2.30;;
72406;SDS011;60396;47.550;18.828;2022-07-22T04:29:59;8.07;;;2.67;;
72406;SDS011;60396;47.550;18.828;2022-07-22T04:32:30;6.90;;;2.10;;
72406;SDS011;60396;47.550;18.828;2022-07-22T04:34:57;6.82;;;2.40;;
72406;SDS011;60396;47.550;18.828;2022-07-22T04:37:25;6.07;;;2.47;;
72406;SDS011;60396;47.550;18.828;2022-07-22T04:39:53;7.68;;;2.60;;
72406;SDS011;60396;47.550;18.828;2022-07-22T04:42:21;10.53;;;2.33;;
72406;SDS011;60396;47.550;18.828;2022-07-22T04:44:50;11.98;;;2.90;;
72406;SDS011;60396;47.550;18.828;2022-07-22T04:47:18;9.45;;;2.67;;
72406;SDS011;60396;47.550;18.828;2022-07-22T04:49:47;8.77;;;2.75;;
72406;SDS011;60396;47.550;18.828;2022-07-22T04:52:16;9.60;;;2.97;;
72406;SDS011;60396;47.550;18.828;2022-07-22T04:54:45;9.73;;;3.00;;
72406;SDS011;60396;47.550;18.828;2022-07-22T04:57:13;9.70;;;2.65;;
72406;SDS011;60396;47.550;18.828;2022-07-22T04:59:41;19.60;;;2.83;;
72406;SDS011;60396;47.550;18.828;2022-07-22T05:02:09;28.00;;;2.72;;
72406;SDS011;60396;47.550;18.828;2022-07-22T05:04:37;19.80;;;2.92;;
72406;SDS011;60396;47.550;18.828;2022-07-22T05:07:04;16.73;;;3.63;;
72406;SDS011;60396;47.550;18.828;2022-07-22T05:09:32;11.68;;;2.83;;
72406;SDS011;60396;47.550;18.828;2022-07-22T05:12:00;13.25;;;2.83;;
72406;SDS011;60396;47.550;18.828;2022-07-22T05:14:31;17.33;;;3.45;;
72406;SDS011;60396;47.550;18.828;2022-07-22T05:16:59;11.52;;;3.15;;
72406;SDS011;60396;47.550;18.828;2022-07-22T05:19:27;10.50;;;3.20;;
72406;SDS011;60396;47.550;18.828;2022-07-22T05:21:55;7.50;;;2.65;;
72406;SDS011;60396;47.550;18.828;2022-07-22T05:24:24;9.57;;;2.70;;
72406;SDS011;60396;47.550;18.828;2022-07-22T05:26:51;13.07;;;3.10;;
72406;SDS011;60396;47.550;18.828;2022-07-22T05:29:20;12.88;;;3.20;;
72406;SDS011;60396;47.550;18.828;2022-07-22T05:31:47;10.10;;;3.20;;
72406;SDS011;60396;47.550;18.828;2022-07-22T05:34:15;11.20;;;3.90;;
72406;SDS011;60396;47.550;18.828;2022-07-22T05:36:44;15.15;;;3.22;;
72406;SDS011;60396;47.550;18.828;2022-07-22T05:39:13;8.55;;;2.75;;
72406;SDS011;60396;47.550;18.828;2022-07-22T05:41:40;20.08;;;3.72;;
72406;SDS011;60396;47.550;18.828;2022-07-22T05:44:08;10.63;;;3.40;;
72406;SDS011;60396;47.550;18.828;2022-07-22T05:46:36;13.38;;;3.53;;
72406;SDS011;60396;47.550;18.828;2022-07-22T05:49:05;9.48;;;3.12;;
72406;SDS011;60396;47.550;18.828;2022-07-22T05:51:33;11.90;;;3.58;;
72406;SDS011;60396;47.550;18.828;2022-07-22T05:54:02;13.15;;;3.37;;
72406;SDS011;60396;47.550;18.828;2022-07-22T05:56:31;13.47;;;3.50;;
72406;SDS011;60396;47.550;18.828;2022-07-22T05:58:59;14.75;;;3.78;;
72406;SDS011;60396;47.550;18.828;2022-07-22T06:01:28;13.05;;;3.40;;
72406;SDS011;60396;47.550;18.828;2022-07-22T06:03:58;13.60;;;4.03;;
72406;SDS011;60396;47.550;18.828;2022-07-22T06:06:25;14.18;;;3.75;;
72406;SDS011;60396;47.550;18.828;2022-07-22T06:08:55;10.23;;;3.30;;
72406;SDS011;60396;47.550;18.828;2022-07-22T06:11:23;11.00;;;3.50;;
72406;SDS011;60396;47.550;18.828;2022-07-22T06:13:56;21.05;;;4.28;;
72406;SDS011;60396;47.550;18.828;2022-07-22T06:16:24;13.25;;;3.53;;
72406;SDS011;60396;47.550;18.828;2022-07-22T06:18:53;9.90;;;3.35;;
72406;SDS011;60396;47.550;18.828;2022-07-22T06:21:21;10.37;;;3.27;;
72406;SDS011;60396;47.550;18.828;2022-07-22T06:23:49;18.92;;;4.53;;
72406;SDS011;60396;47.550;18.828;2022-07-22T06:26:17;12.52;;;3.67;;
72406;SDS011;60396;47.550;18.828;2022-07-22T06:28:45;10.75;;;3.62;;
72406;SDS011;60396;47.550;18.828;2022-07-22T06:31:13;15.98;;;3.87;;
72406;SDS011;60396;47.550;18.828;2022-07-22T06:33:41;9.90;;;3.57;;
72406;SDS011;60396;47.550;18.828;2022-07-22T06:36:08;10.65;;;3.97;;
72406;SDS011;60396;47.550;18.828;2022-07-22T06:38:36;15.65;;;4.05;;
72406;SDS011;60396;47.550;18.828;2022-07-22T06:41:10;12.75;;;4.40;;
72406;SDS011;60396;47.550;18.828;2022-07-22T06:43:40;13.40;;;4.30;;
72406;SDS011;60396;47.550;18.828;2022-07-22T06:46:08;13.80;;;4.53;;
72406;SDS011;60396;47.550;18.828;2022-07-22T06:48:40;9.35;;;4.22;;
72406;SDS011;60396;47.550;18.828;2022-07-22T06:51:08;12.02;;;4.20;;
72406;SDS011;60396;47.550;18.828;2022-07-22T06:53:36;14.05;;;4.68;;
72406;SDS011;60396;47.550;18.828;2022-07-22T06:56:04;12.35;;;4.68;;
72406;SDS011;60396;47.550;18.828;2022-07-22T06:58:36;13.23;;;5.37;;
72406;SDS011;60396;47.550;18.828;2022-07-22T07:01:05;18.58;;;4.55;;
72406;SDS011;60396;47.550;18.828;2022-07-22T07:03:34;12.57;;;4.57;;
72406;SDS011;60396;47.550;18.828;2022-07-22T07:06:03;12.52;;;4.25;;
72406;SDS011;60396;47.550;18.828;2022-07-22T07:08:33;11.10;;;4.85;;
72406;SDS011;60396;47.550;18.828;2022-07-22T07:11:01;9.60;;;4.50;;
72406;SDS011;60396;47.550;18.828;2022-07-22T07:13:29;12.75;;;3.70;;
72406;SDS011;60396;47.550;18.828;2022-07-22T07:15:57;15.27;;;3.70;;
72406;SDS011;60396;47.550;18.828;2022-07-22T07:18:25;13.20;;;4.62;;
72406;SDS011;60396;47.550;18.828;2022-07-22T07:20:52;10.18;;;4.05;;
72406;SDS011;60396;47.550;18.828;2022-07-22T07:23:21;13.63;;;4.20;;
72406;SDS011;60396;47.550;18.828;2022-07-22T07:25:49;10.35;;;3.95;;
72406;SDS011;60396;47.550;18.828;2022-07-22T07:28:17;13.65;;;3.97;;
72406;SDS011;60396;47.550;18.828;2022-07-22T07:30:47;14.82;;;3.67;;
72406;SDS011;60396;47.550;18.828;2022-07-22T07:33:15;11.12;;;4.20;;
72406;SDS011;60396;47.550;18.828;2022-07-22T07:35:43;12.97;;;4.10;;
72406;SDS011;60396;47.550;18.828;2022-07-22T07:38:11;8.57;;;3.75;;
72406;SDS011;60396;47.550;18.828;2022-07-22T07:40:40;12.45;;;3.67;;
72406;SDS011;60396;47.550;18.828;2022-07-22T07:43:08;11.12;;;3.90;;
72406;SDS011;60396;47.550;18.828;2022-07-22T07:45:36;10.95;;;3.87;;
72406;SDS011;60396;47.550;18.828;2022-07-22T07:48:04;9.10;;;3.57;;
72406;SDS011;60396;47.550;18.828;2022-07-22T07:50:32;8.30;;;3.90;;
72406;SDS011;60396;47.550;18.828;2022-07-22T07:53:00;10.20;;;3.55;;
72406;SDS011;60396;47.550;18.828;2022-07-22T07:55:28;10.52;;;4.20;;
72406;SDS011;60396;47.550;18.828;2022-07-22T07:57:57;15.35;;;3.33;;
72406;SDS011;60396;47.550;18.828;2022-07-22T08:00:25;12.23;;;3.77;;
72406;SDS011;60396;47.550;18.828;2022-07-22T08:02:56;12.18;;;3.60;;
72406;SDS011;60396;47.550;18.828;2022-07-22T08:05:26;11.30;;;3.67;;
72406;SDS011;60396;47.550;18.828;2022-07-22T08:07:56;10.32;;;3.80;;
72406;SDS011;60396;47.550;18.828;2022-07-22T08:10:25;16.35;;;4.00;;
72406;SDS011;60396;47.550;18.828;2022-07-22T08:13:14;12.50;;;3.13;;
72406;SDS011;60396;47.550;18.828;2022-07-22T08:15:42;12.18;;;3.40;;
72406;SDS011;60396;47.550;18.828;2022-07-22T08:18:10;9.25;;;3.22;;
72406;SDS011;60396;47.550;18.828;2022-07-22T08:20:39;12.15;;;3.50;;
72406;SDS011;60396;47.550;18.828;2022-07-22T08:23:07;14.18;;;4.15;;
72406;SDS011;60396;47.550;18.828;2022-07-22T08:25:35;13.33;;;3.23;;
72406;SDS011;60396;47.550;18.828;2022-07-22T08:28:03;8.85;;;3.12;;
72406;SDS011;60396;47.550;18.828;2022-07-22T08:30:31;15.25;;;3.92;;
72406;SDS011;60396;47.550;18.828;2022-07-22T08:32:59;14.30;;;3.12;;
72406;SDS011;60396;47.550;18.828;2022-07-22T08:35:26;7.55;;;2.92;;
72406;SDS011;60396;47.550;18.828;2022-07-22T08:37:54;13.53;;;3.87;;
72406;SDS011;60396;47.550;18.828;2022-07-22T08:40:24;12.65;;;4.10;;
72406;SDS011;60396;47.550;18.828;2022-07-22T08:42:52;15.88;;;4.60;;
72406;SDS011;60396;47.550;18.828;2022-07-22T08:45:20;11.38;;;4.07;;
72406;SDS011;60396;47.550;18.828;2022-07-22T08:47:49;11.15;;;3.58;;
72406;SDS011;60396;47.550;18.828;2022-07-22T08:50:18;19.90;;;4.83;;
72406;SDS011;60396;47.550;18.828;2022-07-22T08:52:48;12.80;;;3.70;;
72406;SDS011;60396;47.550;18.828;2022-07-22T08:55:16;10.25;;;3.78;;
72406;SDS011;60396;47.550;18.828;2022-07-22T08:57:45;11.90;;;3.25;;
72406;SDS011;60396;47.550;18.828;2022-07-22T09:00:15;13.27;;;3.62;;
72406;SDS011;60396;47.550;18.828;2022-07-22T09:02:47;10.53;;;3.63;;
72406;SDS011;60396;47.550;18.828;2022-07-22T09:05:17;14.48;;;4.00;;
72406;SDS011;60396;47.550;18.828;2022-07-22T09:08:05;8.00;;;3.47;;
72406;SDS011;60396;47.550;18.828;2022-07-22T09:10:34;11.75;;;3.62;;
72406;SDS011;60396;47.550;18.828;2022-07-22T09:13:04;13.25;;;3.72;;
72406;SDS011;60396;47.550;18.828;2022-07-22T09:15:35;14.33;;;3.80;;
72406;SDS011;60396;47.550;18.828;2022-07-22T09:18:12;15.65;;;3.28;;
72406;SDS011;60396;47.550;18.828;2022-07-22T09:20:42;13.88;;;3.30;;
72406;SDS011;60396;47.550;18.828;2022-07-22T09:23:15;9.77;;;3.47;;
72406;SDS011;60396;47.550;18.828;2022-07-22T09:25:48;12.13;;;4.12;;
72406;SDS011;60396;47.550;18.828;2022-07-22T09:28:21;8.87;;;3.50;;
72406;SDS011;60396;47.550;18.828;2022-07-22T09:30:58;11.45;;;3.92;;
72406;SDS011;60396;47.550;18.828;2022-07-22T09:33:28;10.13;;;3.50;;
72406;SDS011;60396;47.550;18.828;2022-07-22T09:36:03;9.10;;;4.75;;
72406;SDS011;60396;47.550;18.828;2022-07-22T09:38:33;11.40;;;4.20;;
72406;SDS011;60396;47.550;18.828;2022-07-22T09:41:03;12.57;;;4.80;;
72406;SDS011;60396;47.550;18.828;2022-07-22T09:43:34;11.07;;;4.32;;
72406;SDS011;60396;47.550;18.828;2022-07-22T09:46:03;9.77;;;4.40;;
72406;SDS011;60396;47.550;18.828;2022-07-22T09:48:36;19.15;;;4.95;;
72406;SDS011;60396;47.550;18.828;2022-07-22T09:51:07;11.63;;;5.55;;
72406;SDS011;60396;47.550;18.828;2022-07-22T09:53:34;13.87;;;4.47;;
72406;SDS011;60396;47.550;18.828;2022-07-22T09:56:03;12.80;;;5.28;;
72406;SDS011;60396;47.550;18.828;2022-07-22T09:58:32;9.85;;;4.40;;
72406;SDS011;60396;47.550;18.828;2022-07-22T10:01:04;11.70;;;4.90;;
72406;SDS011;60396;47.550;18.828;2022-07-22T10:03:34;9.63;;;4.80;;
72406;SDS011;60396;47.550;18.828;2022-07-22T10:06:05;13.83;;;5.63;;
72406;SDS011;60396;47.550;18.828;2022-07-22T10:08:34;15.48;;;4.87;;
72406;SDS011;60396;47.550;18.828;2022-07-22T10:11:05;12.70;;;5.15;;
72406;SDS011;60396;47.550;18.828;2022-07-22T10:13:34;16.67;;;5.28;;
72406;SDS011;60396;47.550;18.828;2022-07-22T10:16:05;9.45;;;5.12;;
72406;SDS011;60396;47.550;18.828;2022-07-22T10:18:34;11.90;;;4.87;;
72406;SDS011;60396;47.550;18.828;2022-07-22T10:21:06;12.70;;;5.10;;
72406;SDS011;60396;47.550;18.828;2022-07-22T10:23:36;8.98;;;4.47;;
72406;SDS011;60396;47.550;18.828;2022-07-22T10:26:04;13.73;;;5.28;;
72406;SDS011;60396;47.550;18.828;2022-07-22T10:28:35;13.88;;;4.68;;
72406;SDS011;60396;47.550;18.828;2022-07-22T10:31:23;11.20;;;5.47;;
72406;SDS011;60396;47.550;18.828;2022-07-22T10:33:53;13.00;;;5.12;;
72406;SDS011;60396;47.550;18.828;2022-07-22T10:36:56;13.38;;;5.85;;
72406;SDS011;60396;47.550;18.828;2022-07-22T10:39:17;13.05;;;5.82;;
72406;SDS011;60396;47.550;18.828;2022-07-22T10:41:45;11.20;;;5.57;;
72406;SDS011;60396;47.550;18.828;2022-07-22T10:55:46;11.48;;;6.00;;
72406;SDS011;60396;47.550;18.828;2022-07-22T11:01:01;18.67;;;6.30;;
72406;SDS011;60396;47.550;18.828;2022-07-22T11:03:33;19.27;;;5.90;;
72406;SDS011;60396;47.550;18.828;2022-07-22T11:09:05;14.68;;;5.93;;
72406;SDS011;60396;47.550;18.828;2022-07-22T11:16:43;14.25;;;6.15;;
72406;SDS011;60396;47.550;18.828;2022-07-22T11:19:12;13.10;;;5.93;;
72406;SDS011;60396;47.550;18.828;2022-07-22T11:21:40;15.07;;;6.05;;
72406;SDS011;60396;47.550;18.828;2022-07-22T11:24:12;18.23;;;5.80;;
72406;SDS011;60396;47.550;18.828;2022-07-22T11:26:41;15.40;;;5.82;;
72406;SDS011;60396;47.550;18.828;2022-07-22T11:29:31;13.20;;;5.65;;
72406;SDS011;60396;47.550;18.828;2022-07-22T11:32:03;16.42;;;5.75;;
72406;SDS011;60396;47.550;18.828;2022-07-22T11:34:34;14.13;;;5.85;;
72406;SDS011;60396;47.550;18.828;2022-07-22T11:37:03;17.43;;;5.50;;
72406;SDS011;60396;47.550;18.828;2022-07-22T11:39:32;11.98;;;5.30;;
72406;SDS011;60396;47.550;18.828;2022-07-22T11:41:59;9.57;;;5.00;;
72406;SDS011;60396;47.550;18.828;2022-07-22T11:44:29;9.27;;;5.05;;
72406;SDS011;60396;47.550;18.828;2022-07-22T11:46:58;9.32;;;4.85;;
72406;SDS011;60396;47.550;18.828;2022-07-22T11:49:27;16.23;;;5.50;;
72406;SDS011;60396;47.550;18.828;2022-07-22T11:51:57;13.70;;;5.00;;
72406;SDS011;60396;47.550;18.828;2022-07-22T11:54:25;13.93;;;4.80;;
72406;SDS011;60396;47.550;18.828;2022-07-22T11:56:53;13.65;;;4.95;;
72406;SDS011;60396;47.550;18.828;2022-07-22T11:59:24;14.25;;;4.82;;
72406;SDS011;60396;47.550;18.828;2022-07-22T12:01:52;11.17;;;4.53;;
72406;SDS011;60396;47.550;18.828;2022-07-22T12:04:24;11.18;;;4.85;;
72406;SDS011;60396;47.550;18.828;2022-07-22T12:06:53;13.52;;;5.32;;
72406;SDS011;60396;47.550;18.828;2022-07-22T12:09:23;12.52;;;5.18;;
72406;SDS011;60396;47.550;18.828;2022-07-22T12:11:53;13.07;;;5.25;;
72406;SDS011;60396;47.550;18.828;2022-07-22T12:14:24;12.63;;;4.90;;
72406;SDS011;60396;47.550;18.828;2022-07-22T12:17:14;12.35;;;5.75;;
72406;SDS011;60396;47.550;18.828;2022-07-22T12:19:42;12.93;;;4.62;;
72406;SDS011;60396;47.550;18.828;2022-07-22T12:22:11;24.45;;;5.00;;
72406;SDS011;60396;47.550;18.828;2022-07-22T12:24:43;8.30;;;3.37;;
72406;SDS011;60396;47.550;18.828;2022-07-22T12:27:16;11.73;;;4.57;;
72406;SDS011;60396;47.550;18.828;2022-07-22T12:29:45;11.55;;;4.65;;
72406;SDS011;60396;47.550;18.828;2022-07-22T12:32:18;11.35;;;4.50;;
72406;SDS011;60396;47.550;18.828;2022-07-22T12:34:59;12.00;;;3.70;;
72406;SDS011;60396;47.550;18.828;2022-07-22T12:37:30;18.55;;;4.50;;
72406;SDS011;60396;47.550;18.828;2022-07-22T12:40:19;13.17;;;4.17;;
72406;SDS011;60396;47.550;18.828;2022-07-22T12:43:07;12.75;;;4.65;;
72406;SDS011;60396;47.550;18.828;2022-07-22T12:45:36;11.48;;;4.00;;
72406;SDS011;60396;47.550;18.828;2022-07-22T12:48:06;13.88;;;4.82;;
72406;SDS011;60396;47.550;18.828;2022-07-22T12:50:36;10.75;;;4.62;;
72406;SDS011;60396;47.550;18.828;2022-07-22T12:53:08;11.07;;;4.80;;
72406;SDS011;60396;47.550;18.828;2022-07-22T12:55:51;17.87;;;5.30;;
72406;SDS011;60396;47.550;18.828;2022-07-22T12:58:20;9.82;;;5.57;;
72406;SDS011;60396;47.550;18.828;2022-07-22T13:00:53;10.40;;;4.97;;
72406;SDS011;60396;47.550;18.828;2022-07-22T13:03:22;12.27;;;5.53;;
72406;SDS011;60396;47.550;18.828;2022-07-22T13:05:54;12.53;;;4.50;;
72406;SDS011;60396;47.550;18.828;2022-07-22T13:08:25;11.95;;;5.28;;
72406;SDS011;60396;47.550;18.828;2022-07-22T13:11:06;12.55;;;5.20;;
72406;SDS011;60396;47.550;18.828;2022-07-22T13:13:34;14.27;;;5.53;;
72406;SDS011;60396;47.550;18.828;2022-07-22T13:16:02;10.15;;;4.57;;
72406;SDS011;60396;47.550;18.828;2022-07-22T13:18:30;12.57;;;5.30;;
72406;SDS011;60396;47.550;18.828;2022-07-22T13:20:57;12.30;;;5.50;;
72406;SDS011;60396;47.550;18.828;2022-07-22T13:23:25;16.58;;;5.07;;
72406;SDS011;60396;47.550;18.828;2022-07-22T13:25:53;14.50;;;5.22;;
72406;SDS011;60396;47.550;18.828;2022-07-22T13:28:22;11.77;;;4.95;;
72406;SDS011;60396;47.550;18.828;2022-07-22T13:30:50;19.70;;;5.37;;
72406;SDS011;60396;47.550;18.828;2022-07-22T13:33:18;11.10;;;5.80;;
72406;SDS011;60396;47.550;18.828;2022-07-22T13:35:46;12.60;;;4.82;;
72406;SDS011;60396;47.550;18.828;2022-07-22T13:38:13;15.00;;;5.00;;
72406;SDS011;60396;47.550;18.828;2022-07-22T13:40:44;12.07;;;5.50;;
72406;SDS011;60396;47.550;18.828;2022-07-22T13:43:21;16.27;;;5.40;;
72406;SDS011;60396;47.550;18.828;2022-07-22T13:45:51;18.10;;;5.93;;
72406;SDS011;60396;47.550;18.828;2022-07-22T13:48:20;11.52;;;5.22;;
72406;SDS011;60396;47.550;18.828;2022-07-22T13:50:48;16.60;;;5.78;;
72406;SDS011;60396;47.550;18.828;2022-07-22T13:53:16;10.50;;;5.20;;
72406;SDS011;60396;47.550;18.828;2022-07-22T13:55:44;12.67;;;5.70;;
72406;SDS011;60396;47.550;18.828;2022-07-22T13:58:11;12.37;;;5.07;;
72406;SDS011;60396;47.550;18.828;2022-07-22T14:00:39;11.25;;;5.70;;
72406;SDS011;60396;47.550;18.828;2022-07-22T14:03:08;12.25;;;5.03;;
72406;SDS011;60396;47.550;18.828;2022-07-22T14:05:36;11.93;;;4.78;;
72406;SDS011;60396;47.550;18.828;2022-07-22T14:08:04;19.67;;;6.23;;
72406;SDS011;60396;47.550;18.828;2022-07-22T14:10:32;13.05;;;5.57;;
72406;SDS011;60396;47.550;18.828;2022-07-22T14:12:59;18.58;;;6.25;;
72406;SDS011;60396;47.550;18.828;2022-07-22T14:15:27;13.05;;;5.28;;
72406;SDS011;60396;47.550;18.828;2022-07-22T14:17:56;15.23;;;5.57;;
72406;SDS011;60396;47.550;18.828;2022-07-22T14:20:24;12.87;;;5.03;;
72406;SDS011;60396;47.550;18.828;2022-07-22T14:22:51;15.27;;;5.70;;
72406;SDS011;60396;47.550;18.828;2022-07-22T14:25:19;12.30;;;5.05;;
72406;SDS011;60396;47.550;18.828;2022-07-22T14:27:48;12.52;;;5.43;;
72406;SDS011;60396;47.550;18.828;2022-07-22T14:30:35;10.88;;;5.00;;
72406;SDS011;60396;47.550;18.828;2022-07-22T14:33:04;17.43;;;6.40;;
72406;SDS011;60396;47.550;18.828;2022-07-22T14:35:31;15.98;;;5.40;;
72406;SDS011;60396;47.550;18.828;2022-07-22T14:38:02;10.30;;;4.90;;
72406;SDS011;60396;47.550;18.828;2022-07-22T14:40:29;13.75;;;5.62;;
72406;SDS011;60396;47.550;18.828;2022-07-22T14:42:57;13.18;;;5.28;;
72406;SDS011;60396;47.550;18.828;2022-07-22T14:45:45;11.47;;;5.40;;
72406;SDS011;60396;47.550;18.828;2022-07-22T14:48:13;11.02;;;5.12;;
72406;SDS011;60396;47.550;18.828;2022-07-22T14:50:40;12.90;;;5.25;;
72406;SDS011;60396;47.550;18.828;2022-07-22T14:53:10;9.43;;;4.60;;
72406;SDS011;60396;47.550;18.828;2022-07-22T14:55:41;16.17;;;4.87;;
72406;SDS011;60396;47.550;18.828;2022-07-22T14:58:09;16.50;;;5.30;;
72406;SDS011;60396;47.550;18.828;2022-07-22T15:00:37;16.17;;;5.10;;